Airport View

Enter AWOS ICAO identifier for current METAR.

ex. KFNL

KPTS 250215Z AUTO 14006KT 10SM CLR 24/20 A2983 RMK AO2 T02420199

25 May 2020 02:23

Frequency: 118.775

Phone: 620-230-5654

Other Area AWOS: KJLN - KPPF - KCNU - KK88

TAF AMD KJLN 242343Z 2500/2524 18013KT P6SM BKN120 FM250200 15009KT P6SM BKN200 FM250900 17006KT P6SM BKN120 PROB30 2509/2515 4SM TSRA OVC030CB FM251500 16010G18KT P6SM BKN040 PROB30 2515/2518 4SM TSRA OVC025CB FM251800 17013G21KT 6SM SHRA BKN045 PROB30 2518/2524 4SM TSRA OVC030CB